Time;durP1;ratioP1;P1;durP2;ratioP2;P2;SDS_P1;SDS_P2;PMS_P1;PMS_P2;Temp;Humidity;BMP_temperature;BMP_pressure;BME280_temperature;BME280_humidity;BME280_pressure;Samples;Min_cycle;Max_cycle;Signal;HPM_P1;HPM_P2
2021/10/03 00:01:46;;;;;;;10.32;8.70;;;;;;;15.75;100.00;95776.22;4967386;28;20472;-53
2021/10/03 00:04:15;;;;;;;9.60;8.32;;;;;;;15.55;100.00;95773.38;4951803;28;20074;-56
2021/10/03 00:06:46;;;;;;;15.68;9.57;;;;;;;15.05;100.00;95780.50;4969818;28;20081;-59
2021/10/03 00:09:15;;;;;;;10.32;8.57;;;;;;;15.25;100.00;95775.41;4966214;28;20074;-57
2021/10/03 00:11:45;;;;;;;12.15;9.50;;;;;;;15.16;100.00;95772.03;4968552;28;20070;-59
2021/10/03 00:14:14;;;;;;;10.88;9.10;;;;;;;14.91;100.00;95771.59;4968368;28;20066;-58
2021/10/03 00:16:42;;;;;;;10.68;8.63;;;;;;;15.58;100.00;95779.13;4966599;28;20085;-58
2021/10/03 00:19:11;;;;;;;10.60;8.85;;;;;;;15.41;100.00;95775.91;4968252;28;20180;-59
2021/10/03 00:21:40;;;;;;;10.90;9.20;;;;;;;15.66;100.00;95770.25;4965998;28;20081;-59
2021/10/03 00:24:12;;;;;;;10.63;8.68;;;;;;;14.84;100.00;95752.94;4971883;28;20062;-55
2021/10/03 00:26:41;;;;;;;12.25;9.43;;;;;;;15.09;100.00;95758.69;4962136;28;20129;-58
2021/10/03 00:29:10;;;;;;;10.68;8.90;;;;;;;15.58;100.00;95752.56;4970916;28;20488;-56
2021/10/03 00:31:39;;;;;;;12.75;9.90;;;;;;;15.66;100.00;95751.63;4969786;28;20529;-57
2021/10/03 00:34:07;;;;;;;11.15;8.65;;;;;;;15.18;100.00;95754.91;4967627;28;20508;-57
2021/10/03 00:36:36;;;;;;;12.10;9.07;;;;;;;15.12;100.00;95745.03;4948344;28;20059;-60
2021/10/03 00:39:04;;;;;;;13.13;9.40;;;;;;;14.95;100.00;95744.47;4968445;28;20055;-59
2021/10/03 00:41:34;;;;;;;14.52;9.15;;;;;;;15.36;100.00;95748.31;4969165;28;20054;-59
2021/10/03 00:44:03;;;;;;;9.75;8.02;;;;;;;15.56;100.00;95740.50;4970515;28;20062;-58
2021/10/03 00:46:33;;;;;;;10.60;8.23;;;;;;;15.18;100.00;95738.97;4972493;28;20046;-58
2021/10/03 00:49:01;;;;;;;12.10;8.38;;;;;;;15.42;100.00;95735.06;4971699;28;20493;-56
2021/10/03 00:51:30;;;;;;;10.10;8.00;;;;;;;15.29;100.00;95729.66;4967048;28;20086;-59
2021/10/03 00:53:58;;;;;;;9.63;8.15;;;;;;;14.36;100.00;95728.69;4967890;28;20073;-56
2021/10/03 00:56:27;;;;;;;12.25;8.85;;;;;;;14.56;100.00;95730.78;4971098;28;20067;-57
2021/10/03 00:58:57;;;;;;;11.80;8.73;;;;;;;15.41;100.00;95722.78;4973361;28;20082;-59
2021/10/03 01:01:25;;;;;;;9.90;8.57;;;;;;;15.66;100.00;95714.44;4971389;28;20083;-59
2021/10/03 01:03:54;;;;;;;9.60;8.23;;;;;;;15.66;100.00;95722.41;4973076;28;20062;-58
2021/10/03 01:06:22;;;;;;;10.52;8.30;;;;;;;15.44;100.00;95721.59;4969974;28;20097;-58
2021/10/03 01:08:51;;;;;;;14.55;9.00;;;;;;;15.56;100.00;95722.72;4968424;28;20097;-56
2021/10/03 01:11:19;;;;;;;11.38;7.72;;;;;;;15.42;100.00;95720.97;4970496;28;21923;-57
2021/10/03 01:13:48;;;;;;;8.38;7.43;;;;;;;14.97;100.00;95720.41;4970616;28;20093;-55
2021/10/03 01:16:19;;;;;;;8.05;6.85;;;;;;;15.24;100.00;95717.94;4973413;28;20054;-56
2021/10/03 01:18:49;;;;;;;9.45;7.97;;;;;;;15.19;100.00;95718.53;4969915;28;20074;-54
2021/10/03 01:21:19;;;;;;;11.02;8.70;;;;;;;15.28;100.00;95719.19;4971684;28;20218;-58
2021/10/03 01:23:48;;;;;;;8.45;7.40;;;;;;;15.25;100.00;95720.44;4972070;28;20081;-53
2021/10/03 01:26:16;;;;;;;9.55;7.80;;;;;;;14.91;100.00;95721.16;4970720;28;20058;-56
2021/10/03 01:28:45;;;;;;;11.38;8.40;;;;;;;15.25;100.00;95722.28;4965248;28;20066;-56
2021/10/03 01:31:14;;;;;;;10.82;8.05;;;;;;;15.35;100.00;95720.91;4973083;28;20071;-58
2021/10/03 01:33:42;;;;;;;10.63;8.27;;;;;;;15.35;100.00;95722.75;4972870;28;20081;-59
2021/10/03 01:36:11;;;;;;;9.68;7.68;;;;;;;14.99;100.00;95722.84;4970014;28;20073;-56
2021/10/03 01:38:41;;;;;;;9.40;8.10;;;;;;;14.90;100.00;95722.13;4974283;28;20070;-57
2021/10/03 01:41:10;;;;;;;10.63;8.13;;;;;;;15.01;100.00;95710.22;4969709;28;20543;-56
2021/10/03 01:43:38;;;;;;;10.70;9.20;;;;;;;15.03;100.00;95710.81;4971289;28;20082;-58
2021/10/03 01:46:08;;;;;;;13.45;8.90;;;;;;;15.16;100.00;95706.44;4970599;28;20501;-55
2021/10/03 01:48:46;;;;;;;12.38;9.27;;;;;;;15.09;100.00;95702.09;4970043;28;20073;-54
2021/10/03 01:51:17;;;;;;;11.43;8.88;;;;;;;15.27;100.00;95707.75;4970470;28;20082;-56
2021/10/03 01:53:49;;;;;;;12.68;8.77;;;;;;;15.05;100.00;95696.34;4967580;28;20521;-57
2021/10/03 01:56:19;;;;;;;10.77;8.20;;;;;;;15.25;100.00;95707.16;4964980;28;20065;-59
2021/10/03 01:58:50;;;;;;;9.60;8.02;;;;;;;15.30;100.00;95701.25;4971044;28;20070;-53
2021/10/03 02:01:20;;;;;;;10.13;7.35;;;;;;;15.13;100.00;95690.06;4975290;28;20089;-58
2021/10/03 02:03:49;;;;;;;10.20;8.25;;;;;;;15.24;100.00;95694.84;4971580;28;20071;-56
2021/10/03 02:06:17;;;;;;;9.63;7.78;;;;;;;15.17;100.00;95689.53;4969566;28;20062;-57
2021/10/03 02:08:52;;;;;;;11.30;8.45;;;;;;;15.13;100.00;95682.13;4967418;28;20074;-58
2021/10/03 02:11:21;;;;;;;12.18;8.40;;;;;;;14.84;100.00;95689.22;4970548;28;20062;-59
2021/10/03 02:13:49;;;;;;;10.38;8.45;;;;;;;14.44;100.00;95687.97;4968186;28;20079;-57
2021/10/03 02:16:18;;;;;;;10.55;8.18;;;;;;;14.41;100.00;95680.38;4960162;28;20434;-56
2021/10/03 02:18:47;;;;;;;10.00;7.90;;;;;;;15.03;100.00;95674.47;4968913;28;20081;-53
2021/10/03 02:21:16;;;;;;;10.57;8.38;;;;;;;15.25;100.00;95685.91;4968674;28;20069;-56
2021/10/03 02:23:46;;;;;;;10.70;8.60;;;;;;;15.18;100.00;95685.84;4967499;28;20062;-56
2021/10/03 02:26:16;;;;;;;9.55;8.35;;;;;;;14.95;100.00;95686.06;4969663;28;20075;-58
2021/10/03 02:28:44;;;;;;;10.30;6.93;;;;;;;14.82;100.00;95683.28;4967534;28;20494;-57
2021/10/03 02:31:13;;;;;;;11.80;6.60;;;;;;;14.81;100.00;95684.28;4968843;28;20070;-58
2021/10/03 02:33:44;;;;;;;8.90;7.18;;;;;;;14.19;100.00;95688.31;4967314;28;20074;-56
2021/10/03 02:36:14;;;;;;;8.40;6.93;;;;;;;14.08;100.00;95691.44;4949114;28;20078;-51
2021/10/03 02:38:43;;;;;;;9.65;7.35;;;;;;;14.20;100.00;95684.63;4968436;28;20854;-56
2021/10/03 02:41:13;;;;;;;10.45;7.95;;;;;;;14.58;100.00;95681.81;4968728;28;20059;-57
2021/10/03 02:43:45;;;;;;;9.02;7.47;;;;;;;14.55;100.00;95687.50;4966877;28;20642;-57
2021/10/03 02:46:15;;;;;;;9.18;8.18;;;;;;;14.70;100.00;95680.31;4952773;28;20074;-54
2021/10/03 02:48:49;;;;;;;9.93;8.55;;;;;;;14.67;100.00;95677.22;4965236;28;20583;-52
2021/10/03 02:51:19;;;;;;;10.35;8.32;;;;;;;13.75;100.00;95683.03;4968073;28;20058;-57
2021/10/03 02:53:47;;;;;;;10.35;8.45;;;;;;;13.83;100.00;95671.53;4967684;28;20078;-56
2021/10/03 02:56:16;;;;;;;10.00;8.52;;;;;;;13.95;100.00;95681.47;4967717;28;20078;-57
2021/10/03 02:58:47;;;;;;;10.25;8.35;;;;;;;13.87;100.00;95665.69;4967225;28;20086;-59
2021/10/03 03:01:16;;;;;;;10.35;8.40;;;;;;;14.59;100.00;95667.56;4970186;28;20081;-53
2021/10/03 03:03:44;;;;;;;10.77;8.25;;;;;;;14.74;100.00;95662.19;4964426;28;20541;-57
2021/10/03 03:06:14;;;;;;;9.68;8.20;;;;;;;14.80;100.00;95664.06;4967083;28;20063;-58
2021/10/03 03:08:43;;;;;;;10.30;7.40;;;;;;;14.75;100.00;95655.84;4965940;28;20077;-59
2021/10/03 03:11:11;;;;;;;9.85;7.70;;;;;;;14.70;100.00;95667.03;4967998;28;20073;-59
2021/10/03 03:13:40;;;;;;;11.02;8.73;;;;;;;14.78;100.00;95659.97;4967794;28;20097;-54
2021/10/03 03:16:10;;;;;;;8.38;7.20;;;;;;;14.77;100.00;95658.34;4967974;28;20544;-58
2021/10/03 03:18:41;;;;;;;9.90;7.95;;;;;;;14.42;100.00;95660.81;4966256;28;20073;-56
2021/10/03 03:21:10;;;;;;;12.07;8.75;;;;;;;14.11;100.00;95656.59;4966141;28;20070;-56
2021/10/03 03:23:38;;;;;;;11.80;8.73;;;;;;;14.62;100.00;95648.56;4966396;28;20070;-56
2021/10/03 03:26:08;;;;;;;10.35;8.38;;;;;;;14.59;100.00;95646.34;4967790;28;20157;-59
2021/10/03 03:28:36;;;;;;;11.75;8.95;;;;;;;14.64;100.00;95654.53;4969229;28;20058;-59
2021/10/03 03:31:04;;;;;;;10.70;9.10;;;;;;;14.75;100.00;95650.53;4966583;28;20065;-57
2021/10/03 03:33:34;;;;;;;11.10;9.18;;;;;;;14.39;100.00;95645.28;4965789;28;20095;-58
2021/10/03 03:36:03;;;;;;;13.13;9.68;;;;;;;14.57;100.00;95644.88;4967679;28;20077;-57
2021/10/03 03:38:35;;;;;;;14.35;10.38;;;;;;;13.95;100.00;95649.66;4966018;28;20069;-56
2021/10/03 03:41:04;;;;;;;16.08;10.45;;;;;;;14.16;100.00;95651.53;4966147;28;20078;-57
2021/10/03 03:43:33;;;;;;;14.65;11.23;;;;;;;14.06;100.00;95644.91;4967736;28;20070;-57
2021/10/03 03:46:02;;;;;;;13.13;10.80;;;;;;;14.46;100.00;95646.97;4968099;28;20076;-56
2021/10/03 03:48:31;;;;;;;14.32;11.13;;;;;;;14.23;100.00;95654.28;4967374;28;20513;-58
2021/10/03 03:51:03;;;;;;;18.58;10.93;;;;;;;14.27;100.00;95644.94;4948204;28;20077;-56
2021/10/03 03:53:33;;;;;;;13.88;11.45;;;;;;;14.33;100.00;95646.03;4966887;28;20062;-55
2021/10/03 03:56:01;;;;;;;15.93;10.82;;;;;;;13.98;100.00;95638.69;4965988;28;20074;-55
2021/10/03 03:58:30;;;;;;;14.95;11.15;;;;;;;13.98;100.00;95636.06;4972280;28;20066;-59
2021/10/03 04:00:58;;;;;;;15.00;11.45;;;;;;;14.48;100.00;95634.34;4973061;28;20472;-58
2021/10/03 04:03:27;;;;;;;13.90;10.63;;;;;;;14.59;100.00;95634.88;4964074;28;20520;-55
2021/10/03 04:05:55;;;;;;;13.75;10.75;;;;;;;14.53;100.00;95644.44;4965117;28;20066;-56
2021/10/03 04:08:25;;;;;;;13.07;9.95;;;;;;;14.42;100.00;95645.72;4967692;28;20337;-56
2021/10/03 04:10:54;;;;;;;14.05;10.00;;;;;;;14.49;100.00;95643.13;4966874;28;20074;-56
2021/10/03 04:13:23;;;;;;;11.02;8.70;;;;;;;13.69;100.00;95647.50;4968064;28;20144;-57
2021/10/03 04:15:51;;;;;;;11.63;9.35;;;;;;;13.96;100.00;95638.06;4966329;28;20062;-57
2021/10/03 04:18:20;;;;;;;11.60;9.25;;;;;;;14.34;100.00;95629.91;4948501;28;20058;-57
2021/10/03 04:20:49;;;;;;;11.90;9.68;;;;;;;14.44;100.00;95621.66;4967116;28;20074;-59
2021/10/03 04:23:17;;;;;;;12.60;10.63;;;;;;;14.45;100.00;95629.44;4965120;28;20074;-56
2021/10/03 04:25:47;;;;;;;12.98;10.40;;;;;;;14.47;100.00;95631.88;4967713;28;20481;-57
2021/10/03 04:28:16;;;;;;;13.05;10.35;;;;;;;14.42;100.00;95626.34;4968912;28;20453;-58
2021/10/03 04:30:44;;;;;;;12.30;9.77;;;;;;;13.83;100.00;95626.47;4966713;28;20403;-55
2021/10/03 04:33:13;;;;;;;10.07;8.73;;;;;;;14.34;100.00;95626.44;4966188;28;20102;-55
2021/10/03 04:35:41;;;;;;;12.50;9.18;;;;;;;14.38;100.00;95620.59;4967858;28;20066;-57
2021/10/03 04:38:10;;;;;;;11.40;9.40;;;;;;;14.36;100.00;95621.78;4966232;28;20454;-54
2021/10/03 04:40:38;;;;;;;10.57;8.95;;;;;;;14.39;100.00;95627.53;4969038;28;20497;-56
2021/10/03 04:43:08;;;;;;;12.77;9.48;;;;;;;14.38;100.00;95619.75;4966849;28;20469;-53
2021/10/03 04:45:37;;;;;;;11.02;9.18;;;;;;;14.31;100.00;95626.81;4966725;28;20075;-56
2021/10/03 04:48:06;;;;;;;9.70;8.57;;;;;;;14.36;100.00;95625.25;4965566;28;20074;-58
2021/10/03 04:50:35;;;;;;;11.05;8.82;;;;;;;14.34;100.00;95634.41;4967179;28;20089;-53
2021/10/03 04:53:03;;;;;;;12.07;8.40;;;;;;;14.42;100.00;95618.38;4970264;28;20069;-55
2021/10/03 04:55:32;;;;;;;9.02;7.50;;;;;;;14.29;100.00;95626.19;4967968;28;20082;-54
2021/10/03 04:58:00;;;;;;;10.63;7.95;;;;;;;14.36;100.00;95624.44;4972957;28;20062;-49
2021/10/03 05:00:30;;;;;;;8.98;8.07;;;;;;;14.17;100.00;95629.31;4969916;28;20090;-57
2021/10/03 05:02:59;;;;;;;7.65;6.85;;;;;;;14.17;100.00;95626.66;4967472;28;20488;-59
2021/10/03 05:05:27;;;;;;;8.02;6.38;;;;;;;14.12;100.00;95629.06;4964713;28;20074;-59
2021/10/03 05:07:56;;;;;;;6.80;6.10;;;;;;;14.19;100.00;95629.16;4968347;28;20070;-59
2021/10/03 05:10:24;;;;;;;8.30;6.72;;;;;;;13.96;100.00;95629.28;4967884;28;20062;-56
2021/10/03 05:12:53;;;;;;;9.40;7.22;;;;;;;14.24;100.00;95627.56;4966114;28;20070;-60
2021/10/03 05:15:21;;;;;;;8.35;7.38;;;;;;;14.15;100.00;95628.69;4964783;28;20078;-60
2021/10/03 05:17:51;;;;;;;11.27;7.70;;;;;;;14.19;100.00;95637.09;4969160;28;20067;-58
2021/10/03 05:20:19;;;;;;;11.38;9.90;;;;;;;14.32;100.00;95631.13;4970635;28;20069;-56
2021/10/03 05:22:48;;;;;;;9.07;7.90;;;;;;;14.24;100.00;95629.38;4965460;28;20086;-57
2021/10/03 05:25:16;;;;;;;8.05;7.10;;;;;;;14.05;100.00;95632.66;4973332;28;20093;-58
2021/10/03 05:27:45;;;;;;;8.63;7.72;;;;;;;14.32;100.00;95631.13;4971339;28;20073;-53
2021/10/03 05:30:13;;;;;;;9.95;7.22;;;;;;;14.27;100.00;95630.84;4967102;28;20074;-56
2021/10/03 05:32:42;;;;;;;8.35;7.30;;;;;;;14.29;100.00;95642.09;4971579;28;20074;-57
2021/10/03 05:35:12;;;;;;;11.75;8.43;;;;;;;14.26;100.00;95630.03;4969945;28;20308;-55
2021/10/03 05:37:41;;;;;;;13.13;9.40;;;;;;;14.45;100.00;95631.25;4968754;28;20073;-54
2021/10/03 05:40:10;;;;;;;7.72;6.72;;;;;;;14.27;100.00;95638.81;4971397;28;20101;-59
2021/10/03 05:42:39;;;;;;;8.10;6.38;;;;;;;14.37;100.00;95642.78;4968844;28;20536;-58
2021/10/03 05:45:08;;;;;;;8.50;6.75;;;;;;;14.45;100.00;95644.50;4953161;28;20073;-59
2021/10/03 05:47:36;;;;;;;11.77;9.63;;;;;;;14.55;100.00;95630.97;4968634;28;20194;-56
2021/10/03 05:50:05;;;;;;;12.30;10.00;;;;;;;14.52;100.00;95641.94;4967879;28;20509;-56
2021/10/03 05:52:35;;;;;;;13.20;10.15;;;;;;;14.51;100.00;95637.66;4970892;28;20078;-54
2021/10/03 05:55:04;;;;;;;13.15;10.77;;;;;;;14.89;100.00;95639.03;4969918;28;20073;-56
2021/10/03 05:57:33;;;;;;;12.80;9.85;;;;;;;14.86;100.00;95634.09;4965993;28;20074;-56
2021/10/03 06:00:01;;;;;;;13.43;10.40;;;;;;;14.86;100.00;95626.13;4973112;28;20077;-55
2021/10/03 06:02:30;;;;;;;13.52;10.57;;;;;;;15.22;100.00;95627.03;4967468;28;20078;-57
2021/10/03 06:04:58;;;;;;;13.90;10.10;;;;;;;15.29;100.00;95628.72;4968760;28;20093;-58
2021/10/03 06:07:29;;;;;;;15.35;10.93;;;;;;;15.05;100.00;95624.66;4968556;28;20070;-58
2021/10/03 06:09:59;;;;;;;;;;;;;;;15.04;100.00;95619.56;4971786;28;20078;-54
2021/10/03 06:12:27;;;;;;;15.25;10.80;;;;;;;14.98;100.00;95623.78;4968911;28;19953;-59
2021/10/03 06:14:55;;;;;;;15.27;11.40;;;;;;;15.45;100.00;95622.28;4969603;28;20070;-55
2021/10/03 06:17:24;;;;;;;17.40;11.43;;;;;;;15.08;100.00;95616.31;4953000;28;20067;-57
2021/10/03 06:19:52;;;;;;;16.02;11.38;;;;;;;15.53;100.00;95618.66;4970452;28;20484;-56
2021/10/03 06:22:23;;;;;;;18.73;12.45;;;;;;;15.07;100.00;95613.84;4968456;28;20673;-58
2021/10/03 06:24:52;;;;;;;17.95;12.02;;;;;;;15.62;100.00;95614.78;4970312;28;20458;-58
2021/10/03 06:27:22;;;;;;;19.63;12.65;;;;;;;15.53;100.00;95614.16;4970026;28;20074;-59
2021/10/03 06:29:52;;;;;;;15.43;11.50;;;;;;;16.16;100.00;95602.56;4967798;28;20070;-55
2021/10/03 06:32:20;;;;;;;;;;;;;;;16.19;100.00;95610.16;4967627;28;20074;-59
2021/10/03 06:34:50;;;;;;;19.27;11.48;;;;;;;15.33;100.00;95615.88;4967441;28;20004;-57
2021/10/03 06:37:19;;;;;;;19.17;11.85;;;;;;;16.48;100.00;95616.97;4970118;28;20098;-54
2021/10/03 06:39:47;;;;;;;15.73;11.52;;;;;;;16.21;100.00;95610.75;4964662;28;20081;-58
2021/10/03 06:42:16;;;;;;;16.73;11.93;;;;;;;15.84;100.00;95616.38;4967174;28;20501;-58
2021/10/03 06:44:45;;;;;;;16.33;11.40;;;;;;;16.26;100.00;95617.13;4971248;28;20084;-55
2021/10/03 06:47:14;;;;;;;17.55;10.95;;;;;;;16.22;100.00;95618.56;4964626;28;20081;-55
2021/10/03 06:49:43;;;;;;;16.00;10.80;;;;;;;16.27;100.00;95617.94;4967692;28;20086;-57
2021/10/03 06:52:12;;;;;;;15.95;11.80;;;;;;;16.63;100.00;95614.94;4968912;28;20692;-53
2021/10/03 06:54:41;;;;;;;16.38;11.18;;;;;;;17.39;100.00;95613.75;4966643;28;20075;-59
2021/10/03 06:57:09;;;;;;;14.27;10.45;;;;;;;17.26;100.00;95615.38;4966861;28;20097;-55
2021/10/03 06:59:38;;;;;;;17.58;11.38;;;;;;;17.22;100.00;95610.69;4968000;28;20102;-60
2021/10/03 07:02:14;;;;;;;13.02;10.60;;;;;;;17.71;100.00;95602.16;4966421;28;20077;-52
2021/10/03 07:04:42;;;;;;;15.15;10.40;;;;;;;17.15;100.00;95612.53;4966639;28;20548;-55
2021/10/03 07:07:11;;;;;;;14.23;10.52;;;;;;;17.04;100.00;95609.47;4969196;28;20082;-56
2021/10/03 07:09:39;;;;;;;13.65;9.75;;;;;;;17.19;100.00;95608.44;4961685;28;20065;-59
2021/10/03 07:12:26;;;;;;;14.82;10.07;;;;;;;17.47;100.00;95606.31;4965742;28;20058;-60
2021/10/03 07:14:55;;;;;;;12.57;9.60;;;;;;;18.20;100.00;95608.78;4971412;28;20067;-59
2021/10/03 07:17:24;;;;;;;13.45;9.23;;;;;;;18.33;100.00;95613.22;4970840;28;20077;-58
2021/10/03 07:19:53;;;;;;;13.45;9.75;;;;;;;18.53;100.00;95618.44;4969984;28;20125;-56
2021/10/03 07:22:21;;;;;;;13.95;9.50;;;;;;;18.78;100.00;95617.69;4971390;28;20074;-60
2021/10/03 07:24:50;;;;;;;15.18;9.32;;;;;;;19.32;100.00;95630.41;4966911;28;20070;-57
2021/10/03 07:27:18;;;;;;;12.23;9.57;;;;;;;19.19;100.00;95628.66;4967170;28;20070;-58
2021/10/03 07:29:47;;;;;;;12.90;8.77;;;;;;;18.92;100.00;95621.88;4970216;28;20073;-59
2021/10/03 07:32:16;;;;;;;10.25;7.90;;;;;;;19.27;100.00;95626.75;4968290;28;20062;-60
2021/10/03 07:34:46;;;;;;;14.63;8.87;;;;;;;19.80;100.00;95620.91;4966356;28;20078;-55
2021/10/03 07:37:15;;;;;;;13.77;9.23;;;;;;;19.21;100.00;95623.09;4970736;28;20082;-57
2021/10/03 07:39:44;;;;;;;12.10;8.35;;;;;;;19.32;100.00;95624.25;4966186;28;20075;-58
2021/10/03 07:42:12;;;;;;;11.75;8.63;;;;;;;19.66;100.00;95617.56;4966669;28;20066;-56
2021/10/03 07:44:41;;;;;;;12.70;8.93;;;;;;;19.92;100.00;95614.59;4965696;28;20081;-59
2021/10/03 07:47:11;;;;;;;13.30;8.80;;;;;;;19.32;100.00;95619.72;4962318;28;20473;-60
2021/10/03 07:49:40;;;;;;;13.32;7.97;;;;;;;19.73;100.00;95617.50;4966188;28;20544;-60
2021/10/03 07:52:10;;;;;;;13.82;8.77;;;;;;;19.40;100.00;95624.75;4966796;28;21507;-60
2021/10/03 07:54:39;;;;;;;11.70;8.35;;;;;;;20.12;100.00;95614.34;4965402;28;20089;-57
2021/10/03 07:57:07;;;;;;;9.75;7.93;;;;;;;19.95;100.00;95618.66;4965986;28;20521;-60
2021/10/03 07:59:37;;;;;;;10.07;7.68;;;;;;;20.04;100.00;95605.81;4963507;28;20074;-58
2021/10/03 08:02:05;;;;;;;9.85;7.80;;;;;;;20.47;100.00;95608.31;4964018;28;20489;-58
2021/10/03 08:04:34;;;;;;;10.70;8.23;;;;;;;20.68;100.00;95604.34;4967376;28;20074;-59
2021/10/03 08:07:02;;;;;;;10.32;7.78;;;;;;;21.13;100.00;95614.59;4967257;28;20058;-57
2021/10/03 08:09:32;;;;;;;10.88;7.38;;;;;;;21.03;98.08;95620.50;4965582;28;20073;-60
2021/10/03 08:12:00;;;;;;;11.88;7.60;;;;;;;20.42;100.00;95620.78;4966098;28;20062;-59
2021/10/03 08:14:29;;;;;;;8.75;7.05;;;;;;;21.46;91.92;95615.91;4968354;28;20063;-60
2021/10/03 08:16:58;;;;;;;9.45;6.80;;;;;;;22.31;84.89;95617.19;4964248;28;20094;-59
2021/10/03 08:19:29;;;;;;;8.75;6.53;;;;;;;22.13;80.74;95621.66;4969102;28;20533;-60
2021/10/03 08:21:57;;;;;;;7.97;6.22;;;;;;;22.01;84.63;95626.22;4967773;28;20069;-59
2021/10/03 08:24:26;;;;;;;7.10;6.03;;;;;;;21.94;79.92;95620.16;4966408;28;20082;-61
2021/10/03 08:26:56;;;;;;;10.82;6.60;;;;;;;22.13;81.21;95621.66;4965707;28;20604;-56
2021/10/03 08:29:24;;;;;;;7.55;6.05;;;;;;;22.02;80.65;95612.56;4968590;28;20082;-57
2021/10/03 08:31:52;;;;;;;9.55;6.18;;;;;;;22.10;82.20;95615.94;4968450;28;20455;-59
2021/10/03 08:34:21;;;;;;;7.80;5.95;;;;;;;22.41;79.40;95604.75;4963504;28;20090;-59
2021/10/03 08:36:49;;;;;;;7.20;5.38;;;;;;;22.33;81.77;95607.81;4969415;28;20066;-56
2021/10/03 08:39:18;;;;;;;12.57;6.15;;;;;;;22.33;81.14;95607.00;4964261;28;20082;-58
2021/10/03 08:41:47;;;;;;;8.07;5.88;;;;;;;22.86;77.54;95600.44;4965797;28;20059;-59
2021/10/03 08:44:18;;;;;;;7.00;5.00;;;;;;;22.81;77.55;95608.41;4965436;28;20081;-58
2021/10/03 08:46:47;;;;;;;8.30;5.18;;;;;;;23.62;70.09;95601.66;4967743;28;20525;-57
2021/10/03 08:49:18;;;;;;;7.50;5.20;;;;;;;22.95;71.91;95599.84;4968738;28;20065;-60
2021/10/03 08:51:48;;;;;;;5.65;4.72;;;;;;;23.54;71.81;95607.47;4965966;28;20066;-60
2021/10/03 08:54:18;;;;;;;8.98;4.93;;;;;;;23.88;68.86;95594.78;4967291;28;20074;-61
2021/10/03 08:56:47;;;;;;;9.25;4.95;;;;;;;23.16;74.63;95600.19;4967999;28;20067;-60
2021/10/03 08:59:17;;;;;;;6.70;4.95;;;;;;;23.41;72.32;95605.13;4967345;28;20070;-60
2021/10/03 09:01:50;;;;;;;7.30;5.15;;;;;;;24.59;65.69;95586.72;4959852;28;20093;-61
2021/10/03 09:04:28;;;;;;;7.15;4.80;;;;;;;23.63;74.46;95597.91;4967036;28;20082;-60
2021/10/03 09:07:05;;;;;;;6.45;4.47;;;;;;;24.52;67.18;95588.81;4969114;28;20074;-57
2021/10/03 09:09:53;;;;;;;6.93;4.72;;;;;;;24.75;64.30;95585.00;4967017;28;20066;-59
2021/10/03 09:12:26;;;;;;;4.78;4.15;;;;;;;24.83;64.60;95587.22;4975958;28;20065;-59
2021/10/03 09:14:57;;;;;;;6.82;4.30;;;;;;;24.43;62.69;95582.22;4972214;28;20074;-60
2021/10/03 09:17:25;;;;;;;5.22;4.30;;;;;;;25.46;59.90;95578.56;4972823;28;20075;-60
2021/10/03 09:20:08;;;;;;;5.82;4.30;;;;;;;25.35;60.63;95574.97;4969789;28;20079;-60
2021/10/03 09:23:00;;;;;;;5.68;4.05;;;;;;;25.25;58.96;95578.41;4977742;28;20522;-60
2021/10/03 09:25:34;;;;;;;5.15;3.90;;;;;;;25.12;58.42;95580.75;4972964;28;21439;-60
2021/10/03 09:28:04;;;;;;;5.07;4.10;;;;;;;25.50;60.57;95577.00;4973192;28;20059;-60
2021/10/03 09:30:35;;;;;;;6.65;3.90;;;;;;;25.06;57.65;95577.19;4969391;28;20062;-61
2021/10/03 09:33:04;;;;;;;4.65;3.20;;;;;;;25.11;53.26;95577.22;4967385;28;20405;-59
2021/10/03 09:35:33;;;;;;;4.72;2.97;;;;;;;26.08;49.08;95574.31;4973274;28;20070;-58
2021/10/03 09:38:09;;;;;;;6.25;3.10;;;;;;;25.18;49.24;95577.81;4971462;28;20171;-57
2021/10/03 09:40:38;;;;;;;3.00;2.65;;;;;;;25.83;48.17;95573.13;4975135;28;20078;-60
2021/10/03 09:43:06;;;;;;;6.05;3.10;;;;;;;25.72;47.03;95582.25;4971726;28;20450;-52
2021/10/03 09:45:38;;;;;;;3.25;2.88;;;;;;;26.99;45.37;95577.25;4969563;28;20470;-57
2021/10/03 09:48:08;;;;;;;3.30;2.63;;;;;;;25.60;46.49;95577.03;4972465;28;20073;-56
2021/10/03 09:50:39;;;;;;;4.15;2.50;;;;;;;26.92;44.13;95573.22;4971541;28;20466;-55
2021/10/03 09:53:08;;;;;;;4.00;3.08;;;;;;;26.57;44.75;95574.78;4973049;28;20062;-57
2021/10/03 09:55:37;;;;;;;4.00;2.55;;;;;;;25.78;45.40;95573.91;4973814;28;20082;-59
2021/10/03 09:58:06;;;;;;;3.67;2.65;;;;;;;26.51;44.46;95567.75;4951043;28;20119;-55
2021/10/03 10:00:35;;;;;;;4.57;2.90;;;;;;;25.62;45.42;95574.88;4969829;28;20862;-55
2021/10/03 10:03:05;;;;;;;4.70;2.70;;;;;;;25.40;45.86;95569.63;4967613;28;20058;-56
2021/10/03 10:05:33;;;;;;;4.35;2.83;;;;;;;27.10;43.55;95564.53;4967082;28;20081;-53
2021/10/03 10:08:02;;;;;;;3.63;2.70;;;;;;;27.01;44.33;95568.06;4976444;28;20066;-58
2021/10/03 10:10:33;;;;;;;4.97;2.63;;;;;;;27.88;42.03;95569.63;4969944;28;20492;-58
2021/10/03 10:13:09;;;;;;;3.10;2.53;;;;;;;27.43;41.49;95568.63;4973049;28;20544;-60
2021/10/03 10:15:40;;;;;;;4.32;2.72;;;;;;;26.47;43.31;95562.06;4974439;28;20066;-58
2021/10/03 10:18:21;;;;;;;8.55;2.70;;;;;;;26.44;42.96;95559.03;4973034;28;20476;-53
2021/10/03 10:20:50;;;;;;;7.03;2.88;;;;;;;27.12;42.42;95554.31;4965542;28;20089;-57
2021/10/03 10:23:19;;;;;;;3.85;2.55;;;;;;;26.38;43.20;95555.50;4970921;28;20529;-52
2021/10/03 10:25:49;;;;;;;5.72;2.95;;;;;;;26.49;44.14;95556.38;4980602;28;20082;-53
2021/10/03 10:28:23;;;;;;;3.58;2.70;;;;;;;26.59;43.30;95555.59;4970997;28;20463;-55
2021/10/03 10:31:13;;;;;;;3.97;2.40;;;;;;;26.57;44.08;95561.28;4973753;28;20509;-55
2021/10/03 10:34:02;;;;;;;3.80;2.67;;;;;;;26.48;43.40;95552.06;4965662;28;20067;-53
2021/10/03 10:36:33;;;;;;;5.55;2.70;;;;;;;27.05;42.43;95550.19;4973491;28;20077;-56
2021/10/03 10:39:24;;;;;;;2.83;2.40;;;;;;;27.10;43.60;95547.50;4977674;28;20070;-60
2021/10/03 10:41:54;;;;;;;4.07;2.67;;;;;;;27.69;42.56;95544.97;4965868;28;20071;-59
2021/10/03 10:44:38;;;;;;;;;;;;;;;27.21;43.46;95539.13;4972746;28;20560;-56
2021/10/03 10:47:17;;;;;;;4.20;2.55;;;;;;;27.36;42.37;95541.00;4968870;28;19963;-57
2021/10/03 10:49:48;;;;;;;3.28;2.58;;;;;;;27.41;41.76;95541.00;4975472;28;20081;-58
2021/10/03 10:52:31;;;;;;;3.30;2.70;;;;;;;28.05;41.06;95536.78;4970182;28;20086;-58
2021/10/03 10:55:34;;;;;;;3.78;2.70;;;;;;;27.76;42.12;95531.19;4970819;28;20462;-57
2021/10/03 10:58:20;;;;;;;4.85;2.47;;;;;;;27.83;41.30;95528.97;4970612;28;20070;-58
2021/10/03 11:00:58;;;;;;;3.75;2.78;;;;;;;27.60;40.19;95537.72;4969148;28;20552;-55
2021/10/03 11:04:02;;;;;;;6.20;2.90;;;;;;;28.80;39.93;95522.22;4970589;28;20103;-56
2021/10/03 11:07:03;;;;;;;4.07;2.67;;;;;;;28.35;39.56;95514.09;4969719;28;20070;-58
2021/10/03 11:09:59;;;;;;;3.13;2.50;;;;;;;27.75;39.79;95521.41;4967776;28;20074;-56
2021/10/03 11:12:33;;;;;;;5.35;2.55;;;;;;;27.47;39.82;95525.56;4970159;28;20069;-57
2021/10/03 11:15:27;;;;;;;3.17;2.88;;;;;;;27.53;39.89;95520.91;4968812;28;20115;-60
2021/10/03 11:18:03;;;;;;;3.20;2.80;;;;;;;28.10;38.96;95522.38;4975080;28;20086;-52
2021/10/03 11:20:32;;;;;;;8.13;2.63;;;;;;;28.02;38.75;95512.13;4972931;28;20073;-56
2021/10/03 11:23:02;;;;;;;3.15;2.63;;;;;;;28.94;37.85;95506.94;4972579;28;20088;-61
2021/10/03 11:25:31;;;;;;;2.97;2.53;;;;;;;28.52;38.36;95511.03;4970436;28;20079;-58
2021/10/03 11:27:59;;;;;;;4.18;3.30;;;;;;;28.85;38.33;95501.28;4971726;28;20078;-60
2021/10/03 11:30:29;;;;;;;2.90;2.42;;;;;;;28.37;38.82;95509.22;4970544;28;20128;-56
2021/10/03 11:32:57;;;;;;;3.80;2.80;;;;;;;28.30;39.57;95511.41;4969782;28;20441;-58
2021/10/03 11:35:27;;;;;;;2.75;2.45;;;;;;;27.80;40.74;95512.47;4968943;28;20141;-57
2021/10/03 11:38:02;;;;;;;5.20;3.00;;;;;;;28.62;38.79;95510.16;4968084;28;20086;-56